Houghton County Memorial Airport Hancock US
ICAO: KCMX
IATA: CMX
Category: Medium
Scheduled Services: Yes

Elevation: 1095 ft
TransAlt. 18000 ft.

Airport Communications:
ASOS:125.675
MINNEAPOLIS CNTR:127.2
GREEN BAY RDO:122.525
CTAF/UNICOM:122.7

KCMX Zoom In..

Runways:

(A) RW 07 length 5201 ft width 100 ft
---- / hdg 69

(B) RW 13 length 6500 ft width 150 ft
---- / hdg 133

(C) RW 25 length 5201 ft width 100 ft
---- / hdg 249

(D) RW 31 length 6500 ft width 150 ft
ILS 110.30 / hdg 313

Location; KCMX
Day. 22 / Time. 03.53 Zulu
* Altimeter: 30.06
* Temperature: -02° c. -28.4°f.
* Wind from: 050° Speed 09 kn.
Dewpoint: -04° c.
Visibility: 2 m.
Clouds: Broken 400 ft.
Clouds: Overcast 700 ft.
Conditions: Mist.

KCMX 220353Z AUTO 05009KT 2 1/2SM BR BKN004 OVC007 M02/M04 A3006 RMK AO2 SNB17E34 CIG 003V007 SLP195 P0000 I1000 T10171039


Wind From 050°
Speed 09 kn.

jpsM music video
CHECK IT OUT

jpsM - It Moves..

 
jpsmedia.com for Web Design  worldairports.se 2018   terms of use